Aérodrome :
LOGIN :

S'inscrire | Disclaimer

   EN    FR    IT 

 










Légende :    VFR   VFR Marginal   IFR   IFR Intensif   IFR Très Intensif
Visi : 
Plafond : 
>= 8 km
>= 3000ft
5 à 8 km
1000 à 3000 ft
1500m à 5 km
500 à 1000 ft
800 à 1500m
200 à 500 ft
< 800m
< 200 ft
Symboles :   Orages  Brouillard  Fortes neiges  Fortes précipitations  Vent > 20 kt
SIGMETs :   Divers  Orages  Givrage  Turbulence  Onde Orograph.  Cendres Volcan.







- Altitude de l'aérodrome : 144 ft
- Code IATA : PGF
- Voir les cartes d'approche


LFMP - Perpignan

DERNIER METAR :
  • 170930Z AUTO 36004KT 330V030 9999 OVC042 19/15 Q1017 TEMPO SHRA BKN013TCU

METARs EXPIRÉS :
  • 170900Z AUTO 02002KT 9999 FEW034 OVC042 18/15 Q1017 TEMPO 32012KT SHRA BKN013TCU
  • 170830Z AUTO 00000KT 9999 OVC035 18/15 Q1017 TEMPO 32012KT SHRA BKN013TCU
  • 170800Z AUTO 31003KT 280V340 9999 BKN037 BKN044 OVC050 18/15 Q1017 BECMG SCT025TCU
  • 170730Z AUTO VRB02KT 9999 OVC034 17/15 Q1017 BECMG SCT025TCU
  • 170700Z AUTO 30003KT 9999 OVC033 17/15 Q1017 BECMG SCT025TCU

TAF TAF LFMP
Valide du 17 à 09h jusqu'au 18 à 09h UTC


170800Z 1709/1809 VRB02KT 9999 BKN030
TEMPO 1709/1712 32012KT SHRA BKN013TCU
TEMPO 1721/1809 SHRA BKN013TCU
PROB30
TEMPO 1803/1809 32015G25KT 1200 TSRA BR OVC010CB
ATIS : +33 4 68 63 75 12
Pas de NOTAMs connus pour ce terrain.



MET'MAP, la Météo Aéronautique d'un coup d'oeil ! - Copyright ORBIFLY Décembre 2007 - Disclaimer

ORBIFLY MET'MAP TEAM :

Programmation & Développement : Alexandra Zaïnal
Conception & Développement : Baudouin d'Aumeries
Co-Programmation & Développement : Marc-Olivier Méhu
Soutien technique & logistique : Manuel Goepfert

Contact : metmap@orbifly.com




SOURCES & CREDITS :

   NOAA